Time;durP1;ratioP1;P1;durP2;ratioP2;P2;SDS_P1;SDS_P2;PMS_P1;PMS_P2;Temp;Humidity;BMP_temperature;BMP_pressure;BME280_temperature;BME280_humidity;BME280_pressure;Samples;Min_cycle;Max_cycle;Signal;HPM_P1;HPM_P2
2022/06/25 00:02:15;;;;;;;7.67;6.87;;;;;;;17.84;89.51;100360.48;1819926;77;20833;-88
2022/06/25 00:07:27;;;;;;;8.65;7.67;;;;;;;17.87;89.36;100356.19;1819921;77;20970;-88
2022/06/25 00:09:54;;;;;;;9.75;8.43;;;;;;;17.87;89.22;100361.50;1819974;77;20843;-88
2022/06/25 00:12:32;;;;;;;9.20;8.23;;;;;;;17.88;89.21;100360.53;1820004;78;20863;-90
2022/06/25 00:15:06;;;;;;;10.00;8.63;;;;;;;17.89;89.21;100358.71;1819899;79;20966;-89
2022/06/25 00:17:33;;;;;;;10.28;9.38;;;;;;;17.91;89.21;100360.73;1819924;77;21235;-90
2022/06/25 00:20:00;;;;;;;10.82;9.80;;;;;;;17.93;89.20;100360.92;1819928;77;20954;-88
2022/06/25 00:22:26;;;;;;;11.40;10.25;;;;;;;17.95;89.21;100370.91;1820172;77;21048;-88
2022/06/25 00:24:53;;;;;;;12.58;11.45;;;;;;;17.96;89.19;100364.62;1819908;77;20867;-88
2022/06/25 00:27:19;;;;;;;12.40;11.20;;;;;;;17.99;89.16;100371.45;1819808;77;20927;-89
2022/06/25 00:29:46;;;;;;;13.78;12.47;;;;;;;18.00;89.10;100369.13;1819982;77;21913;-89
2022/06/25 00:32:13;;;;;;;15.03;13.53;;;;;;;18.03;89.06;100368.86;1819964;78;20894;-90
2022/06/25 00:34:40;;;;;;;13.75;12.40;;;;;;;18.05;89.07;100369.52;1819795;77;20961;-88
2022/06/25 00:37:07;;;;;;;15.35;13.95;;;;;;;18.09;88.93;100377.54;1819678;77;20958;-89
2022/06/25 00:39:36;;;;;;;13.75;11.05;;;;;;;18.11;88.98;100378.73;1819431;79;20923;-89
2022/06/25 00:42:12;;;;;;;10.58;9.58;;;;;;;18.13;88.91;100379.42;1819626;77;21124;-88
2022/06/25 00:44:39;;;;;;;10.13;9.13;;;;;;;18.13;88.83;100373.61;1794325;79;20969;-88
2022/06/25 00:47:08;;;;;;;8.85;8.00;;;;;;;18.16;88.69;100381.77;1819581;77;20903;-88
2022/06/25 00:49:35;;;;;;;8.73;7.92;;;;;;;18.17;88.48;100386.11;1819389;77;20840;-89
2022/06/25 00:52:13;;;;;;;7.85;7.15;;;;;;;18.16;88.46;100381.30;1819588;77;20906;-89
2022/06/25 00:54:46;;;;;;;8.50;6.12;;;;;;;18.17;88.37;100382.13;1819525;77;21140;-89
2022/06/25 00:57:15;;;;;;;7.20;6.47;;;;;;;18.17;88.33;100386.11;1769804;80;20878;-89
2022/06/25 00:59:44;;;;;;;7.15;6.25;;;;;;;18.17;88.28;100392.25;1761079;80;20859;-89
2022/06/25 01:02:10;;;;;;;7.03;6.03;;;;;;;18.18;88.25;100397.06;1769562;81;21397;-89
2022/06/25 01:04:38;;;;;;;7.67;6.67;;;;;;;18.18;88.21;100389.92;1770511;81;20894;-89
2022/06/25 01:07:06;;;;;;;7.47;6.53;;;;;;;18.20;88.32;100399.08;1762200;80;21125;-90
2022/06/25 01:09:33;;;;;;;8.95;7.33;;;;;;;18.23;88.33;100398.30;1741097;81;20962;-90
2022/06/25 01:11:59;;;;;;;7.22;6.62;;;;;;;18.26;88.21;100406.46;1772769;79;20990;-88
2022/06/25 01:14:26;;;;;;;10.25;6.80;;;;;;;18.27;87.98;100405.96;1772992;79;21115;-88
2022/06/25 01:16:52;;;;;;;10.35;6.10;;;;;;;18.27;87.86;100413.92;1763783;81;20880;-88
2022/06/25 01:19:19;;;;;;;7.15;6.45;;;;;;;18.27;87.78;100412.59;1742045;81;21170;-89
2022/06/25 01:21:46;;;;;;;7.30;6.58;;;;;;;18.26;87.68;100410.44;1772467;75;20891;-88
2022/06/25 01:24:13;;;;;;;8.35;6.37;;;;;;;18.25;87.56;100412.73;1772783;75;20899;-88
2022/06/25 01:26:40;;;;;;;6.60;6.00;;;;;;;18.26;87.56;100417.58;1805288;75;21759;-86
2022/06/25 01:29:06;;;;;;;11.35;6.58;;;;;;;18.26;87.42;100409.61;1805099;75;21080;-88
2022/06/25 01:31:33;;;;;;;7.55;6.60;;;;;;;18.25;87.37;100413.23;1805235;78;21187;-88
2022/06/25 01:34:00;;;;;;;7.17;5.87;;;;;;;18.25;87.39;100414.56;1805036;77;20935;-86
2022/06/25 01:36:26;;;;;;;8.08;6.25;;;;;;;18.23;87.41;100415.55;1805381;78;20892;-88
2022/06/25 01:38:54;;;;;;;11.20;8.65;;;;;;;18.23;87.39;100410.25;1804634;78;20895;-89
2022/06/25 01:41:21;;;;;;;7.60;6.35;;;;;;;18.25;87.34;100410.58;1803994;78;20919;-89
2022/06/25 01:43:48;;;;;;;8.23;6.20;;;;;;;18.25;87.33;100414.56;1802361;79;21967;-89
2022/06/25 01:46:16;;;;;;;9.83;6.65;;;;;;;18.26;87.30;100412.27;1802240;78;20966;-90
2022/06/25 01:48:42;;;;;;;6.62;6.03;;;;;;;18.25;87.26;100418.55;1775084;79;20962;-90
2022/06/25 01:51:12;;;;;;;8.18;6.05;;;;;;;18.26;87.20;100422.88;1802277;78;21091;-89
2022/06/25 01:53:39;;;;;;;9.63;7.50;;;;;;;18.24;87.20;100420.37;1802538;78;20911;-90
2022/06/25 01:56:09;;;;;;;9.15;6.50;;;;;;;18.24;87.14;100428.33;1802184;78;21116;-89
2022/06/25 01:58:36;;;;;;;10.00;6.03;;;;;;;18.23;87.20;100429.33;1802275;79;20990;-89
2022/06/25 02:01:04;;;;;;;9.08;6.58;;;;;;;18.22;87.32;100430.30;1802407;78;20797;-89
2022/06/25 02:03:32;;;;;;;9.03;7.15;;;;;;;18.23;87.26;100431.98;1802770;79;20939;-90
2022/06/25 02:05:58;;;;;;;7.78;6.97;;;;;;;18.24;87.34;100432.31;1802436;78;20939;-89
2022/06/25 02:08:32;;;;;;;9.50;6.72;;;;;;;18.26;87.36;100436.16;1802646;78;21326;-89
2022/06/25 02:11:00;;;;;;;7.03;6.05;;;;;;;18.27;87.39;100439.97;1802051;79;21449;-88
2022/06/25 02:13:27;;;;;;;10.80;6.40;;;;;;;18.27;87.30;100441.80;1802278;78;20958;-89
2022/06/25 02:15:54;;;;;;;7.67;6.87;;;;;;;18.27;87.21;100437.31;1802740;78;20891;-90
2022/06/25 02:18:21;;;;;;;11.00;7.53;;;;;;;18.27;87.03;100442.62;1802512;79;20979;-89
2022/06/25 02:20:47;;;;;;;12.15;7.58;;;;;;;18.27;87.03;100447.94;1802480;78;21120;-89
2022/06/25 02:23:14;;;;;;;10.95;7.90;;;;;;;18.27;87.02;100439.14;1802737;79;20954;-89
2022/06/25 02:25:42;;;;;;;8.68;7.05;;;;;;;18.28;87.02;100452.28;1803021;79;20927;-87
2022/06/25 02:28:08;;;;;;;9.38;6.58;;;;;;;18.30;87.00;100450.81;1801357;79;20953;-87
2022/06/25 02:30:35;;;;;;;7.58;6.87;;;;;;;18.29;87.05;100445.97;1799630;79;21382;-90
2022/06/25 02:33:02;;;;;;;11.00;7.67;;;;;;;18.30;86.95;100447.66;1798993;79;20833;-88
2022/06/25 02:35:29;;;;;;;7.70;7.00;;;;;;;18.30;86.90;100442.85;1798564;79;20892;-89
2022/06/25 02:37:56;;;;;;;8.53;7.78;;;;;;;18.29;86.91;100444.64;1799542;79;20927;-88
2022/06/25 02:40:24;;;;;;;9.43;7.15;;;;;;;18.30;86.81;100455.62;1798707;79;20907;-88
2022/06/25 02:42:51;;;;;;;8.33;7.28;;;;;;;18.29;86.80;100455.27;1798634;79;20919;-89
2022/06/25 02:45:18;;;;;;;8.10;7.25;;;;;;;18.29;86.88;100453.94;1799045;79;21186;-88
2022/06/25 02:47:46;;;;;;;9.70;7.95;;;;;;;18.30;86.81;100458.28;1798586;79;21002;-89
2022/06/25 02:50:13;;;;;;;6.95;6.35;;;;;;;18.30;86.74;100456.12;1799939;79;20899;-87
2022/06/25 02:52:40;;;;;;;11.97;10.78;;;;;;;18.31;86.70;100462.59;1794047;79;20943;-90
2022/06/25 02:55:09;;;;;;;9.45;7.85;;;;;;;18.30;86.63;100461.44;1817938;78;20973;-88
2022/06/25 03:00:22;;;;;;;17.75;15.05;;;;;;;18.21;86.43;100472.44;1818146;79;20881;-90
2022/06/25 03:02:49;;;;;;;20.60;18.73;;;;;;;18.15;86.72;100473.84;1788557;79;20894;-89
2022/06/25 03:05:16;;;;;;;18.65;17.02;;;;;;;18.14;86.93;100472.17;1818265;78;20886;-89
2022/06/25 03:07:42;;;;;;;18.75;15.03;;;;;;;18.16;87.05;100472.01;1818453;78;20870;-89
2022/06/25 03:10:09;;;;;;;17.02;14.93;;;;;;;18.17;87.08;100475.86;1818310;79;21284;-89
2022/06/25 03:12:36;;;;;;;11.80;10.43;;;;;;;18.20;87.00;100480.86;1818607;79;21300;-89
2022/06/25 03:15:05;;;;;;;11.38;10.28;;;;;;;18.23;86.97;100481.92;1815836;79;21355;-89
2022/06/25 03:17:32;;;;;;;12.63;8.90;;;;;;;18.25;86.93;100481.75;1818243;79;20839;-89
2022/06/25 03:20:10;;;;;;;11.03;7.33;;;;;;;18.27;86.75;100482.45;1748717;78;20926;-89
2022/06/25 03:22:39;;;;;;;8.55;7.33;;;;;;;18.28;86.58;100476.67;1817029;78;22802;-90
2022/06/25 03:25:07;;;;;;;9.95;7.90;;;;;;;18.29;86.40;100479.16;1818261;78;20941;-89
2022/06/25 03:27:34;;;;;;;8.30;7.60;;;;;;;18.31;86.34;100481.17;1818126;79;20905;-90
2022/06/25 03:30:03;;;;;;;10.28;7.90;;;;;;;18.35;86.33;100488.37;1816967;78;20866;-89
2022/06/25 03:32:31;;;;;;;9.05;6.62;;;;;;;18.38;85.98;100482.76;1818235;79;21312;-89
2022/06/25 03:35:02;;;;;;;7.90;6.90;;;;;;;18.41;85.91;100491.78;1793081;79;21251;-90
2022/06/25 03:40:17;;;;;;;9.30;8.25;;;;;;;18.51;85.59;100493.88;1798533;79;22479;-90
2022/06/25 03:42:44;;;;;;;10.58;8.48;;;;;;;18.51;85.50;100503.17;1759196;81;21048;-90
2022/06/25 03:45:12;;;;;;;8.30;7.03;;;;;;;18.57;85.18;100513.72;1758870;80;21126;-89
2022/06/25 03:47:39;;;;;;;12.43;8.03;;;;;;;18.60;85.00;100520.05;1758909;80;20876;-89
2022/06/25 03:50:07;;;;;;;8.93;8.13;;;;;;;18.62;84.81;100521.58;1758922;81;20983;-89
2022/06/25 03:52:34;;;;;;;12.73;8.43;;;;;;;18.67;84.67;100523.80;1759147;80;20936;-89
2022/06/25 03:55:01;;;;;;;8.35;7.22;;;;;;;18.73;84.71;100516.57;1759365;80;21362;-89
2022/06/25 03:57:28;;;;;;;10.00;7.92;;;;;;;18.83;84.59;100520.52;1759005;80;21222;-90
2022/06/25 04:00:06;;;;;;;11.65;8.95;;;;;;;18.95;84.40;100519.35;1736113;80;20991;-89
2022/06/25 04:02:39;;;;;;;7.92;7.12;;;;;;;19.07;83.80;100526.62;1759436;80;20923;-89
2022/06/25 04:05:19;;;;;;;12.63;8.05;;;;;;;19.20;83.32;100535.56;1755775;80;20841;-91
2022/06/25 04:07:47;;;;;;;8.78;7.90;;;;;;;19.30;82.62;100532.36;1759121;80;20912;-89
2022/06/25 04:10:17;;;;;;;10.58;8.48;;;;;;;19.41;81.88;100539.28;1758942;81;21133;-89
2022/06/25 04:12:47;;;;;;;12.20;8.80;;;;;;;19.47;81.46;100543.97;1758979;80;20975;-90
2022/06/25 04:15:13;;;;;;;10.10;9.05;;;;;;;19.54;81.03;100539.74;1759189;81;20971;-88
2022/06/25 04:17:40;;;;;;;14.05;8.33;;;;;;;19.61;80.82;100546.12;1758928;80;20963;-90
2022/06/25 04:20:10;;;;;;;12.75;9.68;;;;;;;19.67;80.24;100545.52;1758923;80;21401;-89
2022/06/25 04:22:37;;;;;;;9.98;8.95;;;;;;;19.77;79.91;100553.94;1759083;80;21406;-88
2022/06/25 04:25:05;;;;;;;9.18;8.28;;;;;;;19.84;79.36;100553.66;1759238;80;21023;-90
2022/06/25 04:30:18;;;;;;;10.35;9.20;;;;;;;19.96;78.50;100556.90;1759158;80;20845;-87
2022/06/25 04:32:46;;;;;;;10.25;9.23;;;;;;;20.00;78.33;100556.44;1758707;81;20932;-89
2022/06/25 04:35:17;;;;;;;13.55;11.93;;;;;;;20.02;78.17;100556.29;1759056;81;21011;-90
2022/06/25 04:37:46;;;;;;;11.45;9.08;;;;;;;20.05;78.12;100560.82;1759081;81;20975;-91
2022/06/25 04:40:14;;;;;;;10.25;9.00;;;;;;;20.11;77.95;100559.34;1759236;80;21011;-90
2022/06/25 04:42:43;;;;;;;11.53;10.35;;;;;;;20.21;77.90;100560.09;1759194;81;20947;-89
2022/06/25 04:45:10;;;;;;;11.10;9.43;;;;;;;20.38;77.28;100555.69;1759317;81;20920;-88
2022/06/25 04:47:38;;;;;;;13.10;9.68;;;;;;;20.57;77.01;100562.66;1758605;81;21138;-90
2022/06/25 04:50:07;;;;;;;9.15;8.05;;;;;;;20.93;76.09;100565.66;1756603;81;20940;-90
2022/06/25 04:52:34;;;;;;;9.13;7.95;;;;;;;21.39;75.04;100560.30;1758538;81;21018;-91
2022/06/25 04:55:01;;;;;;;9.15;8.20;;;;;;;21.94;73.56;100555.69;1758955;81;20932;-91
2022/06/25 04:57:28;;;;;;;9.98;9.05;;;;;;;22.46;70.94;100569.67;1758564;81;20952;-90
2022/06/25 05:00:14;;;;;;;8.95;7.83;;;;;;;22.93;68.96;100571.00;1758673;80;21164;-90
2022/06/25 05:02:41;;;;;;;10.48;8.03;;;;;;;23.50;66.94;100578.40;1758507;81;20955;-89
2022/06/25 05:05:09;;;;;;;9.90;6.85;;;;;;;24.02;65.40;100578.22;1758075;81;20853;-91
2022/06/25 05:07:37;;;;;;;9.03;8.03;;;;;;;24.48;63.04;100577.62;1758494;81;20857;-92
2022/06/25 05:10:05;;;;;;;10.98;7.58;;;;;;;24.78;61.53;100587.00;1759144;81;20963;-89
2022/06/25 05:15:18;;;;;;;8.68;7.97;;;;;;;24.80;59.39;100587.65;1758438;81;20920;-91
2022/06/25 05:17:45;;;;;;;8.45;7.80;;;;;;;24.63;59.65;100590.19;1758881;81;20975;-89
2022/06/25 05:20:14;;;;;;;9.50;8.55;;;;;;;24.48;60.03;100587.02;1759017;81;21003;-89
2022/06/25 05:22:41;;;;;;;9.80;8.45;;;;;;;24.34;60.20;100583.76;1759446;81;20856;-89
2022/06/25 05:25:09;;;;;;;9.65;8.68;;;;;;;24.19;60.76;100583.24;1759967;80;21155;-88
2022/06/25 05:27:38;;;;;;;9.75;8.60;;;;;;;24.02;60.76;100583.06;1759504;80;20932;-90
2022/06/25 05:30:07;;;;;;;8.88;8.05;;;;;;;23.82;61.17;100587.26;1759806;81;20928;-88
2022/06/25 05:32:34;;;;;;;8.83;7.95;;;;;;;23.68;61.91;100596.36;1742600;81;20964;-89
2022/06/25 05:35:02;;;;;;;9.65;8.08;;;;;;;23.79;62.38;100595.15;1759510;81;20889;-88
2022/06/25 05:37:29;;;;;;;10.28;9.38;;;;;;;23.90;61.72;100591.19;1760505;81;21154;-87
2022/06/25 05:39:56;;;;;;;9.68;8.75;;;;;;;23.92;61.62;100600.73;1759098;80;20881;-88
2022/06/25 05:42:23;;;;;;;8.98;8.28;;;;;;;24.17;61.88;100597.84;1758783;80;20852;-89
2022/06/25 05:44:50;;;;;;;12.03;8.30;;;;;;;24.34;61.44;100602.01;1758689;81;20880;-90
2022/06/25 05:47:16;;;;;;;9.75;8.85;;;;;;;24.44;60.44;100589.70;1759001;81;20900;-88
2022/06/25 05:49:43;;;;;;;11.35;8.98;;;;;;;24.64;60.08;100587.34;1759668;81;21137;-88
2022/06/25 05:52:09;;;;;;;10.90;8.98;;;;;;;24.82;59.72;100590.47;1761174;78;20794;-90
2022/06/25 05:54:36;;;;;;;10.18;9.30;;;;;;;25.05;59.17;100589.51;1760910;78;20936;-89
2022/06/25 05:57:03;;;;;;;10.60;9.43;;;;;;;25.36;58.64;100591.14;1760784;78;20868;-90
2022/06/25 05:59:29;;;;;;;34.08;10.23;;;;;;;25.74;58.01;100594.94;1760747;78;20960;-89
2022/06/25 06:01:56;;;;;;;11.78;8.93;;;;;;;26.16;56.87;100586.54;1760720;78;21036;-90
2022/06/25 06:04:22;;;;;;;9.80;8.98;;;;;;;26.58;55.68;100591.52;1760465;78;21171;-90
2022/06/25 06:06:51;;;;;;;10.68;9.03;;;;;;;26.84;54.84;100586.80;1760788;78;21042;-90
2022/06/25 06:09:17;;;;;;;11.10;9.88;;;;;;;27.24;54.14;100583.77;1760883;78;20999;-89
2022/06/25 06:11:44;;;;;;;9.35;8.43;;;;;;;27.69;53.19;100584.59;1760769;78;21150;-88
2022/06/25 06:14:11;;;;;;;9.35;8.48;;;;;;;28.14;51.84;100589.39;1760789;78;21254;-87
2022/06/25 06:16:38;;;;;;;10.20;9.30;;;;;;;28.59;49.89;100586.86;1760753;78;20975;-89
2022/06/25 06:19:04;;;;;;;11.33;10.43;;;;;;;28.89;48.53;100590.70;1760969;78;21054;-88
2022/06/25 06:21:31;;;;;;;11.83;10.30;;;;;;;29.18;48.39;100590.42;1761396;78;20865;-89
2022/06/25 06:23:57;;;;;;;10.38;9.25;;;;;;;29.47;46.70;100587.66;1761340;78;20939;-87
2022/06/25 06:26:24;;;;;;;9.43;8.53;;;;;;;29.64;46.41;100592.02;1760876;78;21127;-90
2022/06/25 06:28:51;;;;;;;9.90;8.38;;;;;;;29.88;45.77;100589.04;1760979;78;20939;-89
2022/06/25 06:31:25;;;;;;;9.65;8.85;;;;;;;30.15;45.16;100582.91;1761048;78;20901;-89
2022/06/25 06:33:51;;;;;;;10.70;8.85;;;;;;;30.39;44.29;100593.92;1761103;78;20900;-90
2022/06/25 06:36:18;;;;;;;9.10;8.25;;;;;;;30.49;44.28;100595.60;1760922;78;20955;-90
2022/06/25 06:38:46;;;;;;;9.03;8.20;;;;;;;30.71;43.71;100600.05;1760765;78;21201;-88
2022/06/25 06:41:13;;;;;;;9.38;8.48;;;;;;;30.97;42.52;100584.02;1747863;78;20972;-91
2022/06/25 06:43:40;;;;;;;8.98;8.23;;;;;;;31.19;41.62;100593.34;1747519;78;21064;-88
2022/06/25 06:46:07;;;;;;;9.95;9.25;;;;;;;31.31;41.60;100593.91;1747508;78;20901;-87
2022/06/25 06:48:33;;;;;;;9.33;8.10;;;;;;;31.40;41.10;100591.17;1746676;78;20857;-88
2022/06/25 06:50:59;;;;;;;9.05;8.18;;;;;;;31.42;40.46;100593.16;1745120;82;22040;-88
2022/06/25 06:53:26;;;;;;;9.60;8.68;;;;;;;31.44;40.00;100595.11;1745001;81;20846;-89
2022/06/25 06:55:52;;;;;;;9.78;8.88;;;;;;;31.42;39.70;100587.73;1745640;82;20850;-89
2022/06/25 06:58:19;;;;;;;10.70;8.20;;;;;;;31.34;40.06;100592.08;1745559;82;21347;-88
2022/06/25 07:00:46;;;;;;;13.85;7.58;;;;;;;31.33;39.91;100590.45;1745202;81;20881;-90
2022/06/25 07:03:12;;;;;;;9.08;7.35;;;;;;;31.50;39.35;100595.52;1745396;81;21302;-89
2022/06/25 07:05:39;;;;;;;9.35;8.45;;;;;;;31.74;38.79;100592.87;1744935;81;20892;-89
2022/06/25 07:08:08;;;;;;;8.45;7.65;;;;;;;31.95;38.42;100596.40;1744165;81;20936;-89
2022/06/25 07:10:36;;;;;;;8.73;7.90;;;;;;;32.21;38.91;100595.66;1744930;81;20992;-89
2022/06/25 07:13:03;;;;;;;8.75;8.10;;;;;;;32.43;38.79;100601.31;1745193;81;20885;-89
2022/06/25 07:15:30;;;;;;;10.53;9.53;;;;;;;32.65;37.55;100598.03;1744967;81;21493;-89
2022/06/25 07:17:58;;;;;;;8.58;7.78;;;;;;;32.77;37.29;100591.52;1744885;81;20936;-89
2022/06/25 07:20:24;;;;;;;9.55;8.73;;;;;;;32.78;37.02;100597.22;1744933;80;21031;-90
2022/06/25 07:22:51;;;;;;;10.13;9.08;;;;;;;32.85;37.40;100598.45;1745022;82;20905;-89
2022/06/25 07:25:18;;;;;;;10.08;9.08;;;;;;;32.88;37.04;100597.95;1745380;81;20944;-89
2022/06/25 07:27:46;;;;;;;27.00;24.65;;;;;;;32.78;36.97;100601.84;1734463;81;21134;-87
2022/06/25 07:30:13;;;;;;;10.32;9.53;;;;;;;32.66;37.57;100603.73;1744823;81;20877;-89
2022/06/25 07:32:41;;;;;;;33.88;30.77;;;;;;;32.42;37.67;100609.18;1745089;80;20885;-89
2022/06/25 07:35:08;;;;;;;15.18;13.80;;;;;;;32.25;38.33;100605.52;1745067;80;21490;-89
2022/06/25 07:37:36;;;;;;;10.18;8.70;;;;;;;32.05;37.81;100607.23;1745778;81;20987;-90
2022/06/25 07:40:05;;;;;;;11.30;7.85;;;;;;;32.11;38.05;100620.68;1745471;80;21142;-90
2022/06/25 07:42:32;;;;;;;8.95;7.90;;;;;;;32.27;38.01;100619.15;1745048;80;20917;-89
2022/06/25 07:44:59;;;;;;;8.30;7.60;;;;;;;32.51;37.70;100625.40;1745173;82;20885;-90
2022/06/25 07:47:29;;;;;;;8.93;8.03;;;;;;;32.72;36.92;100619.08;1744924;81;21490;-87
2022/06/25 07:52:41;;;;;;;8.75;8.05;;;;;;;32.93;37.42;100612.17;1745045;81;21241;-89
2022/06/25 07:55:08;;;;;;;8.65;7.75;;;;;;;33.02;37.31;100612.93;1744903;81;20877;-85
2022/06/25 07:57:34;;;;;;;8.83;8.03;;;;;;;32.97;37.28;100614.70;1744861;81;20944;-89
2022/06/25 08:00:04;;;;;;;8.43;7.83;;;;;;;33.02;37.38;100614.83;1744979;81;20850;-89
2022/06/25 08:02:33;;;;;;;9.75;8.90;;;;;;;33.00;37.80;100613.70;1744772;81;20885;-88
2022/06/25 08:05:00;;;;;;;9.73;7.35;;;;;;;32.77;36.23;100606.96;1745107;81;21240;-87
2022/06/25 08:07:28;;;;;;;8.05;7.03;;;;;;;32.42;36.48;100618.69;1745398;81;21466;-89
2022/06/25 08:09:56;;;;;;;9.78;8.58;;;;;;;32.16;36.99;100606.41;1745219;81;21555;-89
2022/06/25 08:12:23;;;;;;;9.03;8.23;;;;;;;31.85;37.92;100601.56;1745302;81;20920;-88
2022/06/25 08:14:50;;;;;;;13.18;7.95;;;;;;;31.57;38.53;100604.41;1745313;81;21039;-90
2022/06/25 08:17:17;;;;;;;8.20;7.42;;;;;;;31.31;39.29;100601.50;1745087;81;21769;-88
2022/06/25 08:19:43;;;;;;;11.08;7.72;;;;;;;31.16;39.10;100597.02;1745117;81;20861;-88
2022/06/25 08:22:11;;;;;;;8.50;7.47;;;;;;;30.98;39.38;100601.95;1745260;82;20893;-89
2022/06/25 08:24:38;;;;;;;8.05;7.35;;;;;;;30.80;39.70;100605.47;1745287;81;21370;-89
2022/06/25 08:27:04;;;;;;;8.40;7.60;;;;;;;30.66;40.03;100606.14;1745950;81;21520;-87
2022/06/25 08:29:31;;;;;;;8.78;8.08;;;;;;;30.60;40.62;100610.28;1746190;80;21224;-88
2022/06/25 08:31:57;;;;;;;9.18;8.30;;;;;;;30.65;40.97;100613.13;1745656;80;20897;-87
2022/06/25 08:34:25;;;;;;;8.30;7.55;;;;;;;30.73;40.49;100616.37;1745345;80;20980;-87
2022/06/25 08:36:52;;;;;;;10.30;9.03;;;;;;;30.78;40.89;100607.56;1745756;81;20846;-88
2022/06/25 08:39:18;;;;;;;8.98;8.30;;;;;;;30.84;40.88;100613.94;1745918;81;20929;-88
2022/06/25 08:41:45;;;;;;;23.20;21.23;;;;;;;30.74;40.65;100618.55;1758551;80;21146;-89
2022/06/25 08:44:11;;;;;;;14.33;12.70;;;;;;;30.62;40.80;100611.70;1758902;81;20916;-88
2022/06/25 08:46:39;;;;;;;11.30;10.32;;;;;;;30.75;40.83;100610.73;1758883;80;20865;-89
2022/06/25 08:49:06;;;;;;;9.05;8.25;;;;;;;30.90;40.93;100606.30;1759023;80;20928;-89
2022/06/25 08:51:33;;;;;;;9.75;8.85;;;;;;;30.98;40.92;100602.77;1759315;81;21484;-89
2022/06/25 08:54:01;;;;;;;9.15;8.40;;;;;;;31.35;40.29;100604.59;1759234;80;21228;-87
2022/06/25 08:56:28;;;;;;;9.78;7.55;;;;;;;31.61;39.63;100616.95;1759120;81;21444;-84
2022/06/25 08:58:55;;;;;;;8.48;7.67;;;;;;;31.71;38.55;100603.66;1759209;80;20939;-88
2022/06/25 09:01:22;;;;;;;9.75;8.90;;;;;;;31.78;38.72;100603.02;1761105;78;20865;-87
2022/06/25 09:03:49;;;;;;;10.48;9.48;;;;;;;31.74;39.25;100610.50;1761158;78;20940;-87
2022/06/25 09:06:17;;;;;;;9.38;8.68;;;;;;;31.57;38.94;100615.25;1761150;78;21085;-88
2022/06/25 09:08:45;;;;;;;8.63;7.90;;;;;;;31.34;39.02;100617.30;1761297;78;21022;-89
2022/06/25 09:11:11;;;;;;;10.40;9.45;;;;;;;31.10;39.33;100608.77;1743810;79;20912;-87
2022/06/25 09:13:38;;;;;;;9.50;8.48;;;;;;;31.05;39.99;100615.41;1760913;78;20924;-88
2022/06/25 09:16:05;;;;;;;9.03;7.92;;;;;;;30.96;39.88;100618.95;1760656;78;20967;-88
2022/06/25 09:18:34;;;;;;;10.00;9.00;;;;;;;30.97;40.32;100625.50;1760878;78;21114;-88
2022/06/25 09:21:07;;;;;;;8.93;8.08;;;;;;;30.77;40.19;100619.44;1760745;78;20884;-88
2022/06/25 09:23:54;;;;;;;9.18;8.35;;;;;;;30.48;40.97;100617.79;1760888;78;21034;-89
2022/06/25 09:26:21;;;;;;;7.80;7.20;;;;;;;30.46;41.36;100625.30;1760594;78;20950;-88
2022/06/25 09:28:47;;;;;;;9.38;8.33;;;;;;;30.42;41.30;100628.15;1760859;78;21034;-90
2022/06/25 09:31:34;;;;;;;9.28;8.40;;;;;;;30.39;40.92;100633.16;1761059;78;21100;-88
2022/06/25 09:34:02;;;;;;;9.55;8.70;;;;;;;30.50;41.15;100632.43;1746780;78;20853;-89
2022/06/25 09:36:29;;;;;;;8.85;8.05;;;;;;;30.68;40.14;100623.50;1760915;78;20979;-89
2022/06/25 09:38:56;;;;;;;9.78;8.80;;;;;;;30.75;40.21;100622.92;1760808;78;20979;-89
2022/06/25 09:41:23;;;;;;;11.20;8.53;;;;;;;30.78;40.19;100628.70;1751915;78;20870;-87
2022/06/25 09:43:51;;;;;;;9.58;8.60;;;;;;;30.89;40.08;100627.69;1747350;78;21189;-88
2022/06/25 09:46:17;;;;;;;10.53;9.30;;;;;;;30.96;39.79;100631.95;1747258;78;21150;-90
2022/06/25 09:48:44;;;;;;;8.50;7.87;;;;;;;30.94;39.62;100621.05;1747515;78;20913;-89
2022/06/25 09:51:13;;;;;;;8.78;7.87;;;;;;;31.00;39.72;100622.86;1745742;82;20928;-88
2022/06/25 09:53:57;;;;;;;8.20;7.15;;;;;;;31.11;38.51;100617.20;1745057;82;20920;-89
2022/06/25 09:56:32;;;;;;;8.05;7.25;;;;;;;31.14;39.25;100617.56;1745188;81;21104;-88
2022/06/25 09:58:59;;;;;;;8.15;7.35;;;;;;;31.23;39.40;100618.08;1745220;81;20901;-89
2022/06/25 10:01:30;;;;;;;7.30;6.80;;;;;;;31.34;39.11;100615.94;1745343;81;20940;-87
2022/06/25 10:04:03;;;;;;;7.67;7.08;;;;;;;31.41;38.38;100610.42;1745220;81;20948;-85
2022/06/25 10:06:34;;;;;;;;;;;;;;;31.36;38.19;100610.30;1747812;81;20865;-88
2022/06/25 10:09:04;;;;;;;6.97;6.37;;;;;;;31.26;37.52;100616.28;1743822;80;21806;-89
2022/06/25 10:11:32;;;;;;;8.15;6.50;;;;;;;31.17;37.95;100612.21;1744892;81;20912;-90
2022/06/25 10:13:59;;;;;;;7.17;6.55;;;;;;;31.21;38.14;100614.77;1745080;81;20976;-90
2022/06/25 10:16:29;;;;;;;7.12;6.00;;;;;;;31.20;38.21;100610.41;1745282;81;20984;-89
2022/06/25 10:18:55;;;;;;;8.00;5.95;;;;;;;31.35;38.80;100607.31;1745365;81;20992;-89
2022/06/25 10:21:23;;;;;;;6.40;5.85;;;;;;;31.40;38.38;100605.55;1745260;81;21130;-91
2022/06/25 10:23:59;;;;;;;9.00;5.58;;;;;;;31.50;38.39;100607.72;1745358;81;20884;-88
2022/06/25 10:26:26;;;;;;;6.85;6.00;;;;;;;31.65;38.19;100607.30;1745341;81;20932;-90
2022/06/25 10:28:52;;;;;;;7.35;5.28;;;;;;;31.72;37.36;100605.30;1745082;80;20905;-89
2022/06/25 10:31:19;;;;;;;6.58;5.50;;;;;;;31.66;37.60;100604.90;1734860;82;20889;-90
2022/06/25 10:34:03;;;;;;;8.78;5.95;;;;;;;31.59;37.35;100602.80;1745274;81;21266;-90
2022/06/25 10:36:43;;;;;;;7.45;6.72;;;;;;;31.44;37.18;100607.81;1745203;81;20877;-89
2022/06/25 10:39:30;;;;;;;6.30;5.72;;;;;;;31.34;37.99;100607.81;1745302;81;20920;-88
2022/06/25 10:45:24;;;;;;;5.92;4.50;;;;;;;31.32;37.94;100600.97;1745358;81;20912;-89
2022/06/25 10:47:53;;;;;;;5.08;4.05;;;;;;;31.37;38.09;100604.66;1745202;81;21283;-88
2022/06/25 10:50:31;;;;;;;5.35;3.90;;;;;;;31.51;37.24;100598.55;1745131;81;20881;-90
2022/06/25 10:53:12;;;;;;;19.05;17.25;;;;;;;31.67;37.68;100598.41;1745137;81;20967;-90
2022/06/25 10:55:41;;;;;;;5.50;5.10;;;;;;;31.70;36.71;100600.64;1745348;81;20853;-88
2022/06/25 10:58:17;;;;;;;7.78;7.12;;;;;;;31.54;37.45;100596.71;1735143;82;20885;-88
2022/06/25 11:01:03;;;;;;;4.97;4.45;;;;;;;31.46;37.19;100600.28;1745325;81;21231;-88
2022/06/25 11:03:41;;;;;;;4.85;3.30;;;;;;;31.36;37.38;100602.98;1745390;82;21042;-89
2022/06/25 11:06:33;;;;;;;3.15;2.72;;;;;;;31.15;37.48;100591.31;1745145;80;20984;-89
2022/06/25 11:09:13;;;;;;;;;;;;;;;31.03;37.71;100590.42;1747843;81;20861;-90
2022/06/25 11:11:41;;;;;;;3.72;3.42;;;;;;;31.02;37.95;100596.91;1745122;82;20122;-89
2022/06/25 11:14:22;;;;;;;4.78;3.60;;;;;;;31.08;37.89;100595.97;1745083;81;21232;-89
2022/06/25 11:16:49;;;;;;;3.83;2.67;;;;;;;31.23;38.03;100594.22;1745139;81;20881;-89
2022/06/25 11:19:16;;;;;;;3.08;2.67;;;;;;;31.26;38.42;100602.73;1745139;81;20979;-89
2022/06/25 11:21:44;;;;;;;2.83;2.30;;;;;;;31.33;38.37;100597.22;1745341;81;20897;-90
2022/06/25 11:24:16;;;;;;;2.67;2.10;;;;;;;31.46;38.35;100605.20;1745366;81;20892;-87
2022/06/25 11:29:51;;;;;;;4.80;2.87;;;;;;;31.69;37.95;100591.41;1746125;81;20905;-90
2022/06/25 11:32:26;;;;;;;2.37;2.15;;;;;;;31.77;37.40;100586.47;1745418;81;20967;-89
2022/06/25 11:34:59;;;;;;;1.77;1.65;;;;;;;31.74;37.06;100587.45;1745085;81;20960;-88
2022/06/25 11:37:31;;;;;;;2.60;2.37;;;;;;;31.64;37.07;100589.89;1745360;82;20921;-89
2022/06/25 11:39:57;;;;;;;2.12;1.87;;;;;;;31.54;37.44;100590.47;1746059;81;21144;-89
2022/06/25 11:42:24;;;;;;;4.72;2.40;;;;;;;31.43;37.11;100588.55;1744917;81;20889;-86
2022/06/25 11:44:53;;;;;;;2.80;2.37;;;;;;;31.30;37.42;100589.00;1744987;81;21098;-88
2022/06/25 11:47:24;;;;;;;2.55;1.95;;;;;;;31.21;37.55;100588.20;1744924;81;20928;-88
2022/06/25 11:49:52;;;;;;;3.30;1.80;;;;;;;31.03;37.01;100583.65;1745513;81;20932;-89
2022/06/25 11:52:22;;;;;;;3.55;2.00;;;;;;;30.77;37.42;100580.17;1745281;80;21129;-89